createdAt,value
2018-01-11T00:02:00.266Z,15.13
2018-01-11T00:06:43.595Z,14.57
2018-01-11T00:11:26.969Z,13.20
2018-01-11T00:16:10.294Z,13.70
2018-01-11T00:20:54.037Z,12.97
2018-01-11T00:25:37.688Z,13.70
2018-01-11T00:30:20.984Z,14.00
2018-01-11T00:35:05.130Z,12.80
2018-01-11T00:39:48.434Z,13.40
2018-01-11T00:44:31.766Z,12.13
2018-01-11T00:49:15.090Z,12.70
2018-01-11T00:53:58.415Z,12.33
2018-01-11T00:58:41.737Z,9.37
2018-01-11T01:03:25.851Z,11.33
2018-01-11T01:08:09.193Z,12.53
2018-01-11T01:12:52.514Z,12.37
2018-01-11T01:17:35.840Z,11.70
2018-01-11T01:22:19.149Z,12.50
2018-01-11T01:27:03.203Z,11.73
2018-01-11T01:31:47.303Z,12.00
2018-01-11T01:36:30.638Z,9.77
2018-01-11T01:41:13.964Z,11.77
2018-01-11T01:45:57.634Z,11.33
2018-01-11T01:50:40.928Z,11.67
2018-01-11T01:55:25.003Z,13.03
2018-01-11T02:00:08.356Z,12.80
2018-01-11T02:04:51.700Z,13.47
2018-01-11T02:09:35.033Z,13.23
2018-01-11T02:14:18.346Z,12.93
2018-01-11T02:19:01.629Z,10.47
2018-01-11T02:23:44.985Z,11.40
2018-01-11T02:28:28.317Z,11.37
2018-01-11T02:33:11.642Z,12.07
2018-01-11T02:37:54.988Z,11.43
2018-01-11T02:42:38.564Z,11.30
2018-01-11T02:47:21.879Z,11.73
2018-01-11T02:52:05.316Z,13.00
2018-01-11T02:56:48.646Z,12.20
2018-01-11T03:01:31.995Z,11.50
2018-01-11T03:06:15.301Z,10.80
2018-01-11T03:10:58.699Z,12.47
2018-01-11T03:15:41.973Z,11.87
2018-01-11T03:20:26.074Z,12.37
2018-01-11T03:25:09.394Z,13.50
2018-01-11T03:29:52.762Z,12.90
2018-01-11T03:34:36.081Z,13.03
2018-01-11T03:39:19.660Z,11.60
2018-01-11T03:44:02.929Z,11.50
2018-01-11T03:48:46.247Z,11.93
2018-01-11T03:53:29.570Z,11.70
2018-01-11T03:58:12.889Z,12.07
2018-01-11T04:02:56.185Z,11.80
2018-01-11T04:07:39.511Z,11.57
2018-01-11T04:12:22.810Z,9.27
2018-01-11T04:17:06.129Z,10.83
2018-01-11T04:21:49.445Z,11.40
2018-01-11T04:26:32.741Z,10.87
2018-01-11T04:31:16.154Z,11.43
2018-01-11T04:35:59.483Z,11.63
2018-01-11T04:40:42.769Z,11.93
2018-01-11T04:45:26.104Z,11.57
2018-01-11T04:50:09.562Z,11.83
2018-01-11T04:54:52.874Z,10.73
2018-01-11T04:59:36.197Z,10.63
2018-01-11T05:04:19.549Z,10.97
2018-01-11T05:09:02.826Z,10.77
2018-01-11T05:13:46.154Z,11.43
2018-01-11T05:18:29.511Z,10.37
2018-01-11T05:23:12.810Z,11.67
2018-01-11T05:27:56.160Z,11.27
2018-01-11T05:32:39.501Z,11.13
2018-01-11T05:37:22.885Z,11.03
2018-01-11T05:42:06.259Z,11.03
2018-01-11T05:46:50.349Z,10.20
2018-01-11T05:51:33.694Z,10.40
2018-01-11T05:56:17.011Z,10.93
2018-01-11T06:01:00.370Z,10.30
2018-01-11T06:05:43.676Z,10.73
2018-01-11T06:10:26.999Z,11.90
2018-01-11T06:15:11.082Z,12.77
2018-01-11T06:19:54.409Z,10.77
2018-01-11T06:24:37.740Z,12.20
2018-01-11T06:29:22.185Z,10.30
2018-01-11T06:34:05.481Z,10.73
2018-01-11T06:38:48.792Z,10.43
2018-01-11T06:43:32.869Z,31.90
2018-01-11T06:48:16.186Z,15.60
2018-01-11T06:53:00.282Z,11.50
2018-01-11T06:57:43.609Z,11.13
2018-01-11T07:02:26.947Z,11.33
2018-01-11T07:07:10.298Z,11.23
2018-01-11T07:11:53.581Z,11.27
2018-01-11T07:16:36.898Z,10.60
2018-01-11T07:21:20.201Z,11.37
2018-01-11T07:26:03.550Z,12.50
2018-01-11T07:30:46.863Z,9.87
2018-01-11T07:35:31.002Z,11.80
2018-01-11T07:40:14.269Z,14.25
2018-01-11T07:44:57.630Z,20.33
2018-01-11T07:49:40.972Z,13.43
2018-01-11T07:54:24.295Z,14.00
2018-01-11T07:59:07.616Z,12.00
2018-01-11T08:03:51.693Z,12.70
2018-01-11T08:08:35.001Z,14.03
2018-01-11T08:13:18.333Z,14.37
2018-01-11T08:18:01.662Z,14.90
2018-01-11T08:22:44.965Z,14.30
2018-01-11T08:27:28.282Z,13.83
2018-01-11T08:32:12.367Z,13.23
2018-01-11T08:36:55.689Z,12.80
2018-01-11T08:41:39.078Z,12.73
2018-01-11T08:46:22.392Z,12.20
2018-01-11T08:51:05.853Z,13.00
2018-01-11T08:55:49.149Z,12.43
2018-01-11T09:00:32.453Z,12.40
2018-01-11T09:05:15.813Z,13.57
2018-01-11T09:09:59.142Z,11.03
2018-01-11T09:14:43.185Z,11.13
2018-01-11T09:19:26.574Z,11.20
2018-01-11T09:24:09.915Z,11.60
2018-01-11T09:28:53.241Z,10.20
2018-01-11T09:33:36.570Z,11.10
2018-01-11T09:38:20.702Z,11.47
2018-01-11T09:43:04.027Z,11.93
2018-01-11T09:47:47.325Z,9.77
2018-01-11T09:52:30.633Z,9.97
2018-01-11T09:57:13.955Z,10.83
2018-01-11T10:01:57.340Z,10.17
2018-01-11T10:06:41.450Z,9.27
2018-01-11T10:11:24.741Z,9.97
2018-01-11T10:16:08.067Z,9.27
2018-01-11T10:20:52.124Z,9.20
2018-01-11T10:25:36.213Z,10.80
2018-01-11T10:30:19.541Z,15.93
2018-01-11T10:35:02.845Z,15.47
2018-01-11T10:44:26.131Z,16.00
2018-01-11T10:49:09.491Z,13.63
2018-01-11T10:53:52.807Z,16.53
2018-01-11T10:58:36.414Z,14.07
2018-01-11T11:03:19.696Z,11.40
2018-01-11T11:08:03.056Z,11.20
2018-01-11T11:12:46.327Z,12.00
2018-01-11T11:17:29.665Z,10.97
2018-01-11T11:22:13.025Z,10.20
2018-01-11T11:26:56.337Z,10.27
2018-01-11T11:31:39.915Z,10.63
2018-01-11T11:36:23.222Z,10.67
2018-01-11T11:41:06.608Z,9.70
2018-01-11T11:45:50.664Z,10.50
2018-01-11T11:50:34.037Z,10.57
2018-01-11T11:55:17.342Z,10.63
2018-01-11T12:00:00.700Z,9.20
2018-01-11T12:04:44.038Z,11.03
2018-01-11T12:09:27.369Z,11.40
2018-01-11T12:14:10.977Z,10.77
2018-01-11T12:18:54.270Z,10.47
2018-01-11T12:23:37.598Z,10.70
2018-01-11T12:28:20.934Z,10.57
2018-01-11T12:33:04.247Z,10.80
2018-01-11T12:37:47.821Z,11.37
2018-01-11T12:42:31.120Z,12.93
2018-01-11T12:47:14.525Z,11.07
2018-01-11T12:51:57.879Z,12.73
2018-01-11T12:56:42.010Z,10.23
2018-01-11T13:01:25.333Z,11.47
2018-01-11T13:06:08.921Z,11.93
2018-01-11T13:10:53.001Z,12.73
2018-01-11T13:15:37.109Z,11.43
2018-01-11T13:20:20.477Z,10.83
2018-01-11T13:25:03.793Z,11.20
2018-01-11T13:29:47.142Z,12.07
2018-01-11T13:34:30.727Z,10.70
2018-01-11T13:39:14.069Z,11.43
2018-01-11T13:43:58.150Z,12.13
2018-01-11T13:48:42.271Z,12.97
2018-01-11T13:53:26.356Z,11.50
2018-01-11T13:58:09.684Z,11.77
2018-01-11T14:02:53.304Z,11.30
2018-01-11T14:07:37.393Z,11.43
2018-01-11T14:12:21.509Z,11.30
2018-01-11T14:17:04.934Z,11.23
2018-01-11T14:21:48.269Z,10.77
2018-01-11T14:26:31.603Z,11.57
2018-01-11T14:31:15.162Z,11.37
2018-01-11T14:35:58.494Z,11.20
2018-01-11T14:40:41.818Z,12.60
2018-01-11T14:45:25.125Z,11.20
2018-01-11T14:50:08.439Z,11.13
2018-01-11T14:54:51.754Z,11.67
2018-01-11T14:59:35.097Z,11.50
2018-01-11T15:04:18.454Z,11.70
2018-01-11T15:09:01.777Z,13.77
2018-01-11T15:13:45.865Z,14.73
2018-01-11T15:18:29.194Z,14.43
2018-01-11T15:23:12.535Z,16.30
2018-01-11T15:27:56.142Z,14.43
2018-01-11T15:32:39.425Z,14.43
2018-01-11T15:37:23.517Z,16.03
2018-01-11T15:42:06.854Z,16.13
2018-01-11T15:46:50.174Z,17.07
2018-01-11T15:51:34.320Z,14.63
2018-01-11T15:56:18.411Z,16.17
2018-01-11T16:01:02.480Z,18.10
2018-01-11T16:05:45.814Z,17.07
2018-01-11T16:10:29.929Z,20.20
2018-01-11T16:15:14.359Z,16.20
2018-01-11T16:19:57.705Z,16.77
2018-01-11T16:24:41.027Z,16.40
2018-01-11T16:29:24.652Z,18.37
2018-01-11T16:34:08.853Z,19.73
2018-01-11T16:38:52.181Z,18.47
2018-01-11T16:43:35.608Z,18.00
2018-01-11T16:48:19.027Z,15.87
2018-01-11T16:53:02.728Z,17.00
2018-01-11T16:57:46.063Z,19.10
2018-01-11T17:02:29.390Z,21.27
2018-01-11T17:07:12.735Z,21.17
2018-01-11T17:11:56.089Z,18.47
2018-01-11T17:16:39.411Z,19.40
2018-01-11T17:21:22.815Z,16.97
2018-01-11T17:26:07.218Z,17.77
2018-01-11T17:30:50.577Z,20.37
2018-01-11T17:35:34.039Z,21.20
2018-01-11T17:40:17.389Z,20.33
2018-01-11T17:45:00.995Z,24.43
2018-01-11T17:49:44.324Z,23.03
2018-01-11T17:54:27.676Z,24.70
2018-01-11T17:59:11.824Z,24.90
2018-01-11T18:03:55.216Z,23.27
2018-01-11T18:08:38.548Z,23.57
2018-01-11T18:13:21.988Z,20.43
2018-01-11T18:18:05.836Z,23.27
2018-01-11T18:22:49.959Z,18.73
2018-01-11T18:27:33.334Z,22.83
2018-01-11T18:32:16.853Z,21.63
2018-01-11T18:37:01.029Z,24.53
2018-01-11T18:41:44.703Z,25.63
2018-01-11T18:46:28.139Z,24.20
2018-01-11T18:51:11.561Z,23.20
2018-01-11T18:55:54.856Z,19.93
2018-01-11T19:00:39.050Z,19.40
2018-01-11T19:05:22.420Z,23.20
2018-01-11T19:10:05.951Z,23.97
2018-01-11T19:14:50.267Z,24.67
2018-01-11T19:19:33.669Z,25.23
2018-01-11T19:24:17.095Z,27.90
2018-01-11T19:29:00.435Z,25.70
2018-01-11T19:33:43.806Z,25.33
2018-01-11T19:38:27.567Z,24.10
2018-01-11T19:43:10.918Z,26.40
2018-01-11T19:47:54.800Z,26.80
2018-01-11T19:52:38.165Z,26.53
2018-01-11T19:57:21.630Z,23.67
2018-01-11T20:02:05.297Z,21.63
2018-01-11T20:06:49.468Z,20.83
2018-01-11T20:11:33.648Z,22.10
2018-01-11T20:16:16.971Z,21.93
2018-01-11T20:21:01.096Z,23.93
2018-01-11T20:25:44.443Z,27.87
2018-01-11T20:30:28.666Z,24.20
2018-01-11T20:35:11.971Z,26.70
2018-01-11T20:39:55.315Z,21.43
2018-01-11T20:44:38.655Z,22.57
2018-01-11T20:49:22.003Z,22.83
2018-01-11T20:54:05.406Z,24.53
2018-01-11T20:58:48.797Z,25.17
2018-01-11T21:03:32.390Z,20.87
2018-01-11T21:08:15.724Z,21.60
2018-01-11T21:12:59.943Z,24.17
2018-01-11T21:17:44.051Z,21.63
2018-01-11T21:22:28.290Z,21.20
2018-01-11T21:27:11.782Z,24.37
2018-01-11T21:31:55.271Z,21.43
2018-01-11T21:36:38.475Z,22.90
2018-01-11T21:41:21.890Z,26.43
2018-01-11T21:46:05.292Z,28.57
2018-01-11T21:50:48.665Z,29.97
2018-01-11T21:55:31.983Z,28.03
2018-01-11T22:00:15.299Z,26.43
2018-01-11T22:04:58.610Z,26.63
2018-01-11T22:09:42.114Z,27.97
2018-01-11T22:14:25.439Z,27.37
2018-01-11T22:19:08.827Z,23.67
2018-01-11T22:23:52.499Z,25.90
2018-01-11T22:33:28.346Z,25.93
2018-01-11T22:38:11.727Z,26.20
2018-01-11T22:42:55.083Z,28.37
2018-01-11T22:47:38.436Z,28.03
2018-01-11T22:52:22.044Z,26.43
2018-01-11T22:57:05.669Z,26.63
2018-01-11T23:01:49.025Z,25.47
2018-01-11T23:06:32.376Z,24.23
2018-01-11T23:11:21.426Z,24.03
2018-01-11T23:16:05.506Z,23.03
2018-01-11T23:20:48.906Z,23.63
2018-01-11T23:25:33.148Z,23.67
2018-01-11T23:30:16.533Z,21.90
2018-01-11T23:35:00.682Z,19.83
2018-01-11T23:39:43.995Z,21.70
2018-01-11T23:44:27.318Z,21.53
2018-01-11T23:49:10.928Z,18.10
2018-01-11T23:53:54.244Z,14.67
2018-01-11T23:58:37.561Z,21.13
